createdAt,value
2018-12-13T00:02:52.017Z,1.78
2018-12-13T00:05:55.516Z,1.75
2018-12-13T00:08:59.026Z,1.61
2018-12-13T00:12:03.328Z,1.42
2018-12-13T00:15:06.893Z,1.46
2018-12-13T00:18:10.586Z,1.55
2018-12-13T00:21:14.306Z,1.40
2018-12-13T00:24:17.782Z,1.34
2018-12-13T00:27:21.313Z,1.19
2018-12-13T00:30:24.903Z,1.04
2018-12-13T00:33:28.462Z,0.97
2018-12-13T00:36:31.928Z,0.79
2018-12-13T00:39:35.444Z,0.63
2018-12-13T00:42:39.056Z,0.57
2018-12-13T00:45:42.577Z,0.46
2018-12-13T00:48:46.118Z,0.25
2018-12-13T00:51:49.792Z,-0.03
2018-12-13T00:54:53.283Z,-0.12
2018-12-13T00:57:56.787Z,0.28
2018-12-13T01:01:01.342Z,0.40
2018-12-13T01:04:04.875Z,0.40
2018-12-13T01:07:08.402Z,0.47
2018-12-13T01:10:12.258Z,0.40
2018-12-13T01:13:15.827Z,0.36
2018-12-13T01:16:24.633Z,0.30
2018-12-13T01:19:28.245Z,0.33
2018-12-13T01:22:31.771Z,0.30
2018-12-13T01:25:35.284Z,0.35
2018-12-13T01:28:38.899Z,0.25
2018-12-13T01:31:42.386Z,0.19
2018-12-13T01:34:45.877Z,0.21
2018-12-13T01:37:49.369Z,0.19
2018-12-13T01:40:52.944Z,0.07
2018-12-13T01:44:03.083Z,0.04
2018-12-13T01:47:06.684Z,0.02
2018-12-13T01:50:10.293Z,0.16
2018-12-13T01:53:13.923Z,0.15
2018-12-13T01:56:17.601Z,0.12
2018-12-13T01:59:21.044Z,0.09
2018-12-13T02:02:24.673Z,0.06
2018-12-13T02:05:28.124Z,0.14
2018-12-13T02:08:31.912Z,0.03
2018-12-13T02:11:35.468Z,-0.02
2018-12-13T02:14:39.462Z,-0.02
2018-12-13T02:17:43.043Z,-0.00
2018-12-13T02:20:46.573Z,0.04
2018-12-13T02:23:50.211Z,0.07
2018-12-13T02:26:53.731Z,0.05
2018-12-13T02:29:57.438Z,-0.03
2018-12-13T02:33:00.956Z,-0.06
2018-12-13T02:36:05.713Z,-0.06
2018-12-13T02:39:09.323Z,-0.00
2018-12-13T02:42:13.139Z,-0.00
2018-12-13T02:45:16.782Z,-0.01
2018-12-13T02:48:20.433Z,-0.01
2018-12-13T02:51:24.029Z,0.01
2018-12-13T02:54:27.518Z,0.03
2018-12-13T02:57:31.139Z,0.06
2018-12-13T03:00:35.121Z,0.13
2018-12-13T03:03:38.597Z,0.27
2018-12-13T03:06:43.001Z,0.15
2018-12-13T03:09:46.548Z,0.09
2018-12-13T03:12:50.351Z,0.12
2018-12-13T03:15:54.001Z,0.19
2018-12-13T03:18:57.633Z,0.43
2018-12-13T03:22:01.206Z,0.36
2018-12-13T03:25:05.287Z,0.45
2018-12-13T03:28:08.868Z,0.57
2018-12-13T03:31:12.369Z,0.48
2018-12-13T03:34:15.948Z,0.48
2018-12-13T03:37:20.827Z,0.34
2018-12-13T03:40:24.724Z,0.27
2018-12-13T03:43:28.339Z,0.14
2018-12-13T03:46:31.898Z,0.13
2018-12-13T03:49:35.411Z,0.07
2018-12-13T03:52:39.028Z,0.02
2018-12-13T03:55:42.587Z,0.16
2018-12-13T03:58:46.137Z,0.37
2018-12-13T04:01:49.621Z,0.31
2018-12-13T04:04:53.208Z,0.43
2018-12-13T04:07:56.787Z,0.33
2018-12-13T04:11:00.345Z,0.40
2018-12-13T04:14:04.217Z,0.67
2018-12-13T04:17:07.682Z,0.60
2018-12-13T04:20:11.198Z,0.50
2018-12-13T04:23:14.711Z,0.40
2018-12-13T04:26:18.352Z,0.30
2018-12-13T04:29:22.007Z,0.27
2018-12-13T04:32:25.539Z,0.30
2018-12-13T04:35:28.992Z,0.34
2018-12-13T04:38:32.586Z,0.24
2018-12-13T04:41:36.385Z,0.20
2018-12-13T04:44:40.056Z,0.17
2018-12-13T04:47:43.610Z,0.03
2018-12-13T04:50:47.137Z,-0.07
2018-12-13T04:53:50.661Z,-0.12
2018-12-13T04:56:54.211Z,-0.32
2018-12-13T04:59:57.712Z,-0.44
2018-12-13T05:03:01.172Z,-0.57
2018-12-13T05:06:04.920Z,-0.68
2018-12-13T05:09:08.870Z,-0.71
2018-12-13T05:12:12.439Z,-0.69
2018-12-13T05:15:15.931Z,-0.71
2018-12-13T05:18:19.451Z,-0.64
2018-12-13T05:21:23.038Z,-0.43
2018-12-13T05:24:26.696Z,-0.24
2018-12-13T05:27:30.235Z,-0.21
2018-12-13T05:30:35.324Z,-0.03
2018-12-13T05:33:38.787Z,0.06
2018-12-13T05:36:42.355Z,0.15
2018-12-13T05:39:45.870Z,0.15
2018-12-13T05:42:49.410Z,0.32
2018-12-13T05:45:53.066Z,0.45
2018-12-13T05:48:56.797Z,0.46
2018-12-13T05:52:00.539Z,0.75
2018-12-13T05:55:04.408Z,0.78
2018-12-13T05:58:07.982Z,0.90
2018-12-13T06:01:11.565Z,0.86
2018-12-13T06:04:15.185Z,1.03
2018-12-13T06:07:18.746Z,1.02
2018-12-13T06:10:22.285Z,1.05
2018-12-13T06:13:25.970Z,1.09
2018-12-13T06:16:29.516Z,1.09
2018-12-13T06:19:33.097Z,1.11
2018-12-13T06:22:36.625Z,1.14
2018-12-13T06:25:40.158Z,1.14
2018-12-13T06:28:43.643Z,1.12
2018-12-13T06:31:47.130Z,1.20
2018-12-13T06:34:50.818Z,1.19
2018-12-13T06:37:54.387Z,1.08
2018-12-13T06:40:58.018Z,1.19
2018-12-13T06:44:01.543Z,1.02
2018-12-13T06:47:05.496Z,1.06
2018-12-13T06:50:09.164Z,1.04
2018-12-13T06:53:12.682Z,1.11
2018-12-13T06:56:16.237Z,1.22
2018-12-13T06:59:19.758Z,1.25
2018-12-13T07:02:23.212Z,1.14
2018-12-13T07:05:26.892Z,1.16
2018-12-13T07:08:30.561Z,1.13
2018-12-13T07:11:35.532Z,1.03
2018-12-13T07:14:39.162Z,1.06
2018-12-13T07:17:42.680Z,1.10
2018-12-13T07:20:46.171Z,1.13
2018-12-13T07:23:49.926Z,1.19
2018-12-13T07:26:53.411Z,1.13
2018-12-13T07:29:57.046Z,1.14
2018-12-13T07:33:00.596Z,1.32
2018-12-13T07:36:04.747Z,1.26
2018-12-13T07:39:10.102Z,1.31
2018-12-13T07:42:13.815Z,1.34
2018-12-13T07:45:17.376Z,1.40
2018-12-13T07:48:20.942Z,1.35
2018-12-13T07:51:24.478Z,1.33
2018-12-13T07:54:28.095Z,1.46
2018-12-13T07:57:31.646Z,1.35
2018-12-13T08:00:35.770Z,1.57
2018-12-13T08:03:39.513Z,1.62
2018-12-13T08:06:43.040Z,1.55
2018-12-13T08:09:46.606Z,1.66
2018-12-13T08:12:50.181Z,1.67
2018-12-13T08:15:53.857Z,1.68
2018-12-13T08:18:57.366Z,1.65
2018-12-13T08:22:00.926Z,1.71
2018-12-13T08:25:05.524Z,1.63
2018-12-13T08:28:09.236Z,1.70
2018-12-13T08:31:12.842Z,1.57
2018-12-13T08:34:16.523Z,1.62
2018-12-13T08:37:20.317Z,1.69
2018-12-13T08:40:23.931Z,1.76
2018-12-13T08:43:27.443Z,1.76
2018-12-13T08:46:36.343Z,1.82
2018-12-13T08:49:36.593Z,1.65
2018-12-13T08:52:40.200Z,1.76
2018-12-13T08:55:43.835Z,1.65
2018-12-13T08:58:47.363Z,1.84
2018-12-13T09:01:51.023Z,1.68
2018-12-13T09:04:54.601Z,1.65
2018-12-13T09:07:58.227Z,1.75
2018-12-13T09:11:01.918Z,1.73
2018-12-13T09:14:05.578Z,1.85
2018-12-13T09:17:09.202Z,1.83
2018-12-13T09:20:12.842Z,1.93
2018-12-13T09:23:16.538Z,1.83
2018-12-13T09:26:20.143Z,1.86
2018-12-13T09:29:23.666Z,1.79
2018-12-13T09:32:27.216Z,1.84
2018-12-13T09:35:30.798Z,1.78
2018-12-13T09:38:39.791Z,2.07
2018-12-13T09:41:41.541Z,2.21
2018-12-13T09:44:45.037Z,2.40
2018-12-13T09:47:48.550Z,2.37
2018-12-13T09:50:52.067Z,2.31
2018-12-13T09:53:55.603Z,2.27
2018-12-13T09:56:59.246Z,2.26
2018-12-13T10:00:03.292Z,2.22
2018-12-13T10:03:07.035Z,2.21
2018-12-13T10:06:10.652Z,2.24
2018-12-13T10:09:14.156Z,2.17
2018-12-13T10:12:17.742Z,1.96
2018-12-13T10:15:21.361Z,2.08
2018-12-13T10:18:24.837Z,2.10
2018-12-13T10:21:28.367Z,2.10
2018-12-13T10:24:31.839Z,2.15
2018-12-13T10:27:35.908Z,2.21
2018-12-13T10:30:39.406Z,2.36
2018-12-13T10:33:43.087Z,2.39
2018-12-13T10:36:46.733Z,2.52
2018-12-13T10:39:50.208Z,2.41
2018-12-13T10:42:53.790Z,2.21
2018-12-13T10:45:57.310Z,2.30
2018-12-13T10:49:00.873Z,2.08
2018-12-13T10:52:05.702Z,2.07
2018-12-13T10:55:09.281Z,2.20
2018-12-13T10:58:12.894Z,2.38
2018-12-13T11:01:21.982Z,2.19
2018-12-13T11:04:25.527Z,2.22
2018-12-13T11:07:29.031Z,2.31
2018-12-13T11:10:32.595Z,2.35
2018-12-13T11:13:36.228Z,2.66
2018-12-13T11:16:39.799Z,2.43
2018-12-13T11:19:43.290Z,2.44
2018-12-13T11:22:46.944Z,2.68
2018-12-13T11:25:50.420Z,2.80
2018-12-13T11:30:16.446Z,2.71
2018-12-13T11:33:20.066Z,2.60
2018-12-13T11:36:23.808Z,2.65
2018-12-13T11:39:27.370Z,2.64
2018-12-13T11:42:30.954Z,2.49
2018-12-13T11:45:36.367Z,2.41
2018-12-13T11:48:40.001Z,2.27
2018-12-13T11:51:43.668Z,2.31
2018-12-13T11:54:47.270Z,2.30
2018-12-13T11:57:50.796Z,2.10
2018-12-13T12:00:54.355Z,2.06
2018-12-13T12:03:57.916Z,2.00
2018-12-13T12:07:01.687Z,2.07
2018-12-13T12:10:06.191Z,2.20
2018-12-13T12:13:09.871Z,2.27
2018-12-13T12:16:13.536Z,2.46
2018-12-13T12:19:17.075Z,2.17
2018-12-13T12:22:20.588Z,2.01
2018-12-13T12:25:24.304Z,1.92
2018-12-13T12:28:27.844Z,1.93
2018-12-13T12:31:31.461Z,2.03
2018-12-13T12:34:36.486Z,2.10
2018-12-13T12:37:40.344Z,2.16
2018-12-13T12:40:43.836Z,2.28
2018-12-13T12:43:47.380Z,2.27
2018-12-13T12:46:50.995Z,2.29
2018-12-13T12:49:54.624Z,2.35
2018-12-13T12:52:58.182Z,2.47
2018-12-13T12:56:01.713Z,2.78
2018-12-13T12:59:05.669Z,2.51
2018-12-13T13:02:09.285Z,2.47
2018-12-13T13:05:12.784Z,2.26
2018-12-13T13:08:16.380Z,2.32
2018-12-13T13:11:19.866Z,1.84
2018-12-13T13:14:23.428Z,1.86
2018-12-13T13:17:27.094Z,1.69
2018-12-13T13:20:30.562Z,1.75
2018-12-13T13:23:34.416Z,1.69
2018-12-13T13:26:38.036Z,1.82
2018-12-13T13:29:41.541Z,1.73
2018-12-13T13:32:45.025Z,1.79
2018-12-13T13:35:48.575Z,2.09
2018-12-13T13:38:52.266Z,2.10
2018-12-13T13:41:55.887Z,2.09
2018-12-13T13:45:02.466Z,2.07
2018-12-13T13:48:06.024Z,1.95
2018-12-13T13:51:09.677Z,2.16
2018-12-13T13:54:13.261Z,2.36
2018-12-13T13:57:16.896Z,2.44
2018-12-13T14:00:20.617Z,2.50
2018-12-13T14:03:24.132Z,2.21
2018-12-13T14:06:27.644Z,2.22
2018-12-13T14:09:31.118Z,2.35
2018-12-13T14:12:34.710Z,2.35
2018-12-13T14:15:38.351Z,2.27
2018-12-13T14:18:41.843Z,2.45
2018-12-13T14:21:45.322Z,2.45
2018-12-13T14:24:48.875Z,2.42
2018-12-13T14:27:52.405Z,2.39
2018-12-13T14:30:55.921Z,2.34
2018-12-13T14:33:59.572Z,2.44
2018-12-13T14:37:03.206Z,2.30
2018-12-13T14:40:07.006Z,2.26
2018-12-13T14:43:10.634Z,2.27
2018-12-13T14:46:14.212Z,2.26
2018-12-13T14:49:17.680Z,2.36
2018-12-13T14:52:21.314Z,2.45
2018-12-13T14:55:24.848Z,2.54
2018-12-13T14:58:28.390Z,2.39
2018-12-13T15:01:32.070Z,2.31
2018-12-13T15:04:36.970Z,2.15
2018-12-13T15:07:40.511Z,2.29
2018-12-13T15:10:44.178Z,2.20
2018-12-13T15:13:47.740Z,2.21
2018-12-13T15:16:51.330Z,2.29
2018-12-13T15:19:54.881Z,2.19
2018-12-13T15:22:58.596Z,2.22
2018-12-13T15:26:02.252Z,2.06
2018-12-13T15:29:06.161Z,2.16
2018-12-13T15:32:09.730Z,2.09
2018-12-13T15:35:13.664Z,2.25
2018-12-13T15:38:17.224Z,2.15
2018-12-13T15:41:20.736Z,2.10
2018-12-13T15:44:24.251Z,2.17
2018-12-13T15:47:28.029Z,2.10
2018-12-13T15:50:31.511Z,2.08
2018-12-13T15:53:34.990Z,1.93
2018-12-13T15:56:38.909Z,2.08
2018-12-13T15:59:42.439Z,2.16
2018-12-13T16:02:46.059Z,2.06
2018-12-13T16:05:49.512Z,2.02
2018-12-13T16:08:53.022Z,1.88
2018-12-13T16:11:56.499Z,1.84
2018-12-13T16:15:00.090Z,1.83
2018-12-13T16:18:03.743Z,2.11
2018-12-13T16:21:07.204Z,1.83
2018-12-13T16:24:10.726Z,1.92
2018-12-13T16:27:14.172Z,2.00
2018-12-13T16:30:18.007Z,2.02
2018-12-13T16:33:21.570Z,2.16
2018-12-13T16:36:25.194Z,2.10
2018-12-13T16:39:28.658Z,1.94
2018-12-13T16:42:32.306Z,1.85
2018-12-13T16:45:37.256Z,1.87
2018-12-13T16:48:40.900Z,1.62
2018-12-13T16:51:44.385Z,1.48
2018-12-13T16:54:48.000Z,1.46
2018-12-13T16:57:51.652Z,1.45
2018-12-13T17:00:55.290Z,1.57
2018-12-13T17:03:59.055Z,1.66
2018-12-13T17:07:02.558Z,1.62
2018-12-13T17:10:08.297Z,1.71
2018-12-13T17:13:11.791Z,1.75
2018-12-13T17:16:15.351Z,1.81
2018-12-13T17:19:18.947Z,1.76
2018-12-13T17:22:22.631Z,1.93
2018-12-13T17:25:26.250Z,1.86
2018-12-13T17:28:29.835Z,1.91
2018-12-13T17:31:33.289Z,2.11
2018-12-13T17:34:37.486Z,2.09
2018-12-13T17:37:40.955Z,2.19
2018-12-13T17:40:44.434Z,2.06
2018-12-13T17:43:48.024Z,2.09
2018-12-13T17:46:51.511Z,1.92
2018-12-13T17:49:54.984Z,1.87
2018-12-13T17:52:58.726Z,1.78
2018-12-13T17:56:02.189Z,1.80
2018-12-13T17:59:06.567Z,1.86
2018-12-13T18:02:10.091Z,1.82
2018-12-13T18:05:13.751Z,1.90
2018-12-13T18:08:17.256Z,1.68
2018-12-13T18:11:20.774Z,1.85
2018-12-13T18:14:24.576Z,1.92
2018-12-13T18:17:28.130Z,1.87
2018-12-13T18:20:31.633Z,1.80
2018-12-13T18:23:35.353Z,1.81
2018-12-13T18:26:38.931Z,1.92
2018-12-13T18:29:42.460Z,1.85
2018-12-13T18:32:45.994Z,1.86
2018-12-13T18:35:49.521Z,1.92
2018-12-13T18:38:53.339Z,1.93
2018-12-13T18:41:56.898Z,1.98
2018-12-13T18:45:00.655Z,1.90
2018-12-13T18:48:04.486Z,1.79
2018-12-13T18:51:07.977Z,1.78
2018-12-13T18:54:11.510Z,1.73
2018-12-13T18:57:14.997Z,1.88
2018-12-13T19:00:18.619Z,1.75
2018-12-13T19:03:22.284Z,1.70
2018-12-13T19:06:25.911Z,1.75
2018-12-13T19:09:29.443Z,1.83
2018-12-13T19:12:33.825Z,1.83
2018-12-13T19:15:37.784Z,1.82
2018-12-13T19:18:41.390Z,1.77
2018-12-13T19:21:45.017Z,1.52
2018-12-13T19:24:48.455Z,1.51
2018-12-13T19:27:52.038Z,1.67
2018-12-13T19:30:55.589Z,1.56
2018-12-13T19:33:59.130Z,1.51
2018-12-13T19:37:02.624Z,1.66
2018-12-13T19:40:07.483Z,1.68
2018-12-13T19:43:10.989Z,1.67
2018-12-13T19:46:14.510Z,1.64
2018-12-13T19:49:18.002Z,1.72
2018-12-13T19:52:21.511Z,1.71
2018-12-13T19:55:25.510Z,1.72
2018-12-13T19:58:29.090Z,1.65
2018-12-13T20:01:32.733Z,1.69
2018-12-13T20:04:37.950Z,1.64
2018-12-13T20:07:41.529Z,1.66
2018-12-13T20:10:45.113Z,1.69
2018-12-13T20:13:48.579Z,1.76
2018-12-13T20:16:52.138Z,1.63
2018-12-13T20:19:55.689Z,1.62
2018-12-13T20:22:59.275Z,1.64
2018-12-13T20:26:02.933Z,1.52
2018-12-13T20:29:07.232Z,1.60
2018-12-13T20:32:10.773Z,1.61
2018-12-13T20:35:14.780Z,1.80
2018-12-13T20:38:18.298Z,1.70
2018-12-13T20:41:21.779Z,1.61
2018-12-13T20:44:25.314Z,1.68
2018-12-13T20:47:28.834Z,1.70
2018-12-13T20:50:32.392Z,1.75
2018-12-13T20:53:35.953Z,1.57
2018-12-13T20:56:39.649Z,1.76
2018-12-13T20:59:43.215Z,1.71
2018-12-13T21:02:46.738Z,1.80
2018-12-13T21:05:50.262Z,1.64
2018-12-13T21:08:53.799Z,1.69
2018-12-13T21:11:57.363Z,1.68
2018-12-13T21:15:00.909Z,1.63
2018-12-13T21:18:04.417Z,1.63
2018-12-13T21:21:07.972Z,1.55
2018-12-13T21:24:11.469Z,1.51
2018-12-13T21:27:15.092Z,1.50
2018-12-13T21:30:18.748Z,1.51
2018-12-13T21:33:22.173Z,1.51
2018-12-13T21:36:25.913Z,1.63
2018-12-13T21:39:29.389Z,1.65
2018-12-13T21:42:32.874Z,1.62
2018-12-13T21:45:36.413Z,1.51
2018-12-13T21:48:39.883Z,1.66
2018-12-13T21:51:43.409Z,1.57
2018-12-13T21:54:47.076Z,1.64
2018-12-13T21:57:50.643Z,1.64
2018-12-13T22:00:54.164Z,1.64
2018-12-13T22:03:57.692Z,1.80
2018-12-13T22:07:01.199Z,1.78
2018-12-13T22:10:05.972Z,1.80
2018-12-13T22:13:09.449Z,1.82
2018-12-13T22:16:12.923Z,1.71
2018-12-13T22:19:16.433Z,1.72
2018-12-13T22:22:19.961Z,1.78
2018-12-13T22:25:24.369Z,1.63
2018-12-13T22:28:27.887Z,1.63
2018-12-13T22:31:31.413Z,1.63
2018-12-13T22:34:36.084Z,1.58
2018-12-13T22:37:39.782Z,1.54
2018-12-13T22:40:43.290Z,1.63
2018-12-13T22:43:46.802Z,1.56
2018-12-13T22:46:50.428Z,1.57
2018-12-13T22:49:53.983Z,1.52
2018-12-13T22:52:57.458Z,1.56
2018-12-13T22:56:01.043Z,1.64
2018-12-13T22:59:04.933Z,1.67
2018-12-13T23:02:08.549Z,1.63
2018-12-13T23:05:12.041Z,1.61
2018-12-13T23:08:15.687Z,1.62
2018-12-13T23:11:19.238Z,1.60
2018-12-13T23:14:22.840Z,1.55
2018-12-13T23:17:26.447Z,1.80
2018-12-13T23:20:30.033Z,1.80
2018-12-13T23:23:33.566Z,1.87
2018-12-13T23:32:10.659Z,1.67
2018-12-13T23:35:14.276Z,1.75
2018-12-13T23:38:17.742Z,1.69
2018-12-13T23:41:21.280Z,1.72
2018-12-13T23:44:24.762Z,1.69
2018-12-13T23:47:28.339Z,1.73
2018-12-13T23:50:31.978Z,1.82
2018-12-13T23:53:35.686Z,1.73
2018-12-13T23:56:39.201Z,1.82
2018-12-13T23:59:42.743Z,1.73
